CheckWX is a tool to help pilots better visualize weather data.  It is not intended as a substitute for an official pre-flight weather briefing.

18:40:43 UTC

KMCK METAR
Mc Cook Ben Nelson Regional Airport
Mc Cook, Nebraska, USA
Current

10 mins ago

KMCK 221831Z AUTO 12007KT 2 1/2SM -SN BR OVC007 M01/M02 A3001 RMK AO2 SNE01B14 P0000 T10111022
Observed
Feb-22 @ 18:31 UTC
Wind
  • 120° at 7 KTS
Visibility
2 1/2 SM
Flight Rules
IFR
Conditions
Light Snow, Mist
Cloud Levels
  • Overcast at 700' AGL
Temperature
-1°C / 30°F
Dewpoint
-2°C / 28°F
Humidity
93%
Altimeter
30.01" Hg
Pressure
1016.22 hPa
Current Rain
0.01"
Previous

24 mins ago

KMCK 221817Z AUTO 12004KT 1 3/4SM -SN BR OVC007 M01/M02 A3001 RMK AO2 SNE01B14 P0000 T10111022
Observed
Feb-22 @ 18:17 UTC
Wind
  • 120° at 4 KTS
Visibility
1 3/4 SM
Flight Rules
IFR
Conditions
Light Snow, Mist
Cloud Levels
  • Overcast at 700' AGL
Temperature
-1°C / 30°F
Dewpoint
-2°C / 28°F
Humidity
93%
Altimeter
30.01" Hg
Pressure
1016.22 hPa
Current Rain
0.01"
Previous

32 mins ago

KMCK 221809Z AUTO 13005KT 3SM BR OVC007 M01/M03 A3002 RMK AO2 SNE01 P0000 T10111028
Observed
Feb-22 @ 18:09 UTC
Wind
  • 130° at 5 KTS
Visibility
3 SM
Flight Rules
IFR
Conditions
Mist
Cloud Levels
  • Overcast at 700' AGL
Temperature
-1°C / 30°F
Dewpoint
-3°C / 27°F
Humidity
86%
Altimeter
30.02" Hg
Pressure
1016.62 hPa
Current Rain
0.01"